Time;durP1;ratioP1;P1;durP2;ratioP2;P2;SDS_P1;SDS_P2;PMS_P1;PMS_P2;Temp;Humidity;BMP_temperature;BMP_pressure;BME280_temperature;BME280_humidity;BME280_pressure;Samples;Min_cycle;Max_cycle;Signal;HPM_P1;HPM_P2
2022/03/28 00:01:03;;;;;;;7.35;2.15;;;;;;;13.39;26.54;99732.00;4409441;32;20465;-81
2022/03/28 00:03:29;;;;;;;8.68;2.20;;;;;;;13.35;26.54;99731.28;4395511;32;20144;-81
2022/03/28 00:05:54;;;;;;;9.10;2.40;;;;;;;13.43;26.35;99736.19;4409322;32;20186;-82
2022/03/28 00:08:20;;;;;;;7.82;2.37;;;;;;;13.34;26.41;99740.16;4409235;32;20098;-82
2022/03/28 00:10:46;;;;;;;8.48;2.37;;;;;;;13.35;26.31;99728.66;4409470;32;20113;-80
2022/03/28 00:13:11;;;;;;;7.55;2.20;;;;;;;13.27;26.25;99733.44;4395507;32;20071;-79
2022/03/28 00:15:37;;;;;;;9.57;2.40;;;;;;;13.37;25.90;99731.22;4406631;32;20453;-81
2022/03/28 00:18:02;;;;;;;7.87;2.10;;;;;;;13.25;25.78;99726.50;4403733;32;20380;-80
2022/03/28 00:20:28;;;;;;;7.78;2.25;;;;;;;13.34;25.20;99723.41;4398408;32;20109;-80
2022/03/28 00:22:53;;;;;;;8.90;2.10;;;;;;;13.25;25.15;99714.16;4406354;32;20106;-80
2022/03/28 00:25:19;;;;;;;8.68;2.30;;;;;;;13.28;25.12;99716.63;4394740;32;20098;-80
2022/03/28 00:27:44;;;;;;;9.73;2.08;;;;;;;13.17;25.18;99718.94;4394175;32;20112;-80
2022/03/28 00:30:10;;;;;;;7.35;1.87;;;;;;;13.32;24.72;99715.56;4380479;32;20474;-80
2022/03/28 00:32:36;;;;;;;8.77;2.05;;;;;;;13.35;24.80;99710.13;4380161;32;20406;-81
2022/03/28 00:35:01;;;;;;;7.37;2.17;;;;;;;13.10;24.64;99705.19;4394181;32;20113;-80
2022/03/28 00:37:27;;;;;;;7.50;2.33;;;;;;;13.01;24.54;99704.78;4394194;32;20102;-81
2022/03/28 00:39:52;;;;;;;7.85;2.00;;;;;;;13.14;24.45;99705.88;4381007;32;20388;-80
2022/03/28 00:42:18;;;;;;;9.77;2.40;;;;;;;13.12;24.63;99708.59;4394015;32;20078;-81
2022/03/28 00:44:43;;;;;;;8.80;2.15;;;;;;;13.18;24.30;99710.09;4379039;32;20149;-80
2022/03/28 00:47:09;;;;;;;7.62;2.22;;;;;;;13.06;24.43;99700.12;4380382;32;20098;-80
2022/03/28 00:49:35;;;;;;;9.70;2.78;;;;;;;13.21;24.08;99709.06;4394012;32;20768;-80
2022/03/28 00:52:01;;;;;;;12.00;2.58;;;;;;;13.02;24.11;99701.19;4380305;32;20206;-80
2022/03/28 00:54:26;;;;;;;9.40;2.30;;;;;;;13.13;23.98;99693.59;4393916;32;20358;-80
2022/03/28 00:56:52;;;;;;;9.85;3.10;;;;;;;13.07;24.32;99693.91;4380065;32;20087;-80
2022/03/28 00:59:18;;;;;;;10.63;2.53;;;;;;;13.11;24.36;99688.34;4380770;32;20095;-80
2022/03/28 01:01:46;;;;;;;10.13;2.58;;;;;;;12.95;25.22;99692.72;4380101;32;20086;-80
2022/03/28 01:04:12;;;;;;;8.95;2.60;;;;;;;12.87;24.62;99689.63;4393879;32;20121;-80
2022/03/28 01:06:38;;;;;;;11.12;2.47;;;;;;;12.97;24.23;99689.06;4393680;32;20142;-81
2022/03/28 01:09:04;;;;;;;7.90;2.40;;;;;;;12.94;23.72;99683.06;4393886;32;20095;-81
2022/03/28 01:11:32;;;;;;;8.93;2.47;;;;;;;13.02;24.09;99685.31;4380164;32;20558;-79
2022/03/28 01:13:59;;;;;;;12.10;2.97;;;;;;;13.05;23.69;99690.47;4403034;32;20113;-81
2022/03/28 01:16:27;;;;;;;10.05;2.92;;;;;;;13.09;25.67;99690.22;4408539;32;20090;-80
2022/03/28 01:18:53;;;;;;;11.73;3.78;;;;;;;13.05;26.18;99690.47;4408921;32;20161;-80
2022/03/28 01:21:18;;;;;;;11.02;3.47;;;;;;;13.02;27.93;99682.69;4408993;32;20078;-79
2022/03/28 01:23:44;;;;;;;11.45;3.78;;;;;;;12.72;28.34;99689.41;4395016;32;20122;-81
2022/03/28 01:26:10;;;;;;;12.57;3.65;;;;;;;12.36;29.39;99687.63;4410157;32;20351;-81
2022/03/28 01:28:35;;;;;;;11.40;3.60;;;;;;;12.59;28.85;99677.72;4404748;32;20569;-81
2022/03/28 01:31:00;;;;;;;11.80;3.80;;;;;;;12.59;29.11;99675.09;4397526;32;20102;-80
2022/03/28 01:33:26;;;;;;;12.75;3.65;;;;;;;12.48;29.39;99669.50;4408340;32;20160;-79
2022/03/28 01:35:54;;;;;;;10.85;3.55;;;;;;;11.87;30.04;99676.66;4408774;32;20473;-79
2022/03/28 01:38:21;;;;;;;10.23;3.83;;;;;;;12.30;27.29;99669.41;4394761;32;20094;-80
2022/03/28 01:40:48;;;;;;;13.30;3.72;;;;;;;12.26;28.20;99667.84;4408701;32;20148;-80
2022/03/28 01:43:14;;;;;;;9.80;3.20;;;;;;;12.36;27.79;99661.22;4394847;32;20128;-80
2022/03/28 01:45:40;;;;;;;13.07;4.93;;;;;;;12.24;27.33;99656.50;4395015;32;20106;-80
2022/03/28 01:48:07;;;;;;;13.20;4.47;;;;;;;12.28;29.26;99663.34;4394872;32;20393;-81
2022/03/28 01:50:32;;;;;;;13.88;4.75;;;;;;;12.15;30.17;99657.81;4395930;32;20106;-82
2022/03/28 01:52:58;;;;;;;13.05;4.05;;;;;;;12.11;30.03;99652.72;4423855;32;20126;-80
2022/03/28 01:55:24;;;;;;;11.75;3.70;;;;;;;12.06;28.90;99657.37;4408225;32;20118;-80
2022/03/28 01:57:49;;;;;;;9.68;2.85;;;;;;;12.07;28.21;99651.16;4423924;32;20097;-80
2022/03/28 02:00:23;;;;;;;14.23;3.60;;;;;;;11.95;26.69;99644.66;4423839;32;20093;-80
2022/03/28 02:02:49;;;;;;;12.30;4.12;;;;;;;12.15;28.03;99635.81;4422818;32;20106;-80
2022/03/28 02:05:15;;;;;;;14.43;4.53;;;;;;;12.13;28.67;99646.47;4408614;32;20506;-80
2022/03/28 02:07:43;;;;;;;13.00;4.85;;;;;;;12.18;29.47;99648.88;4382359;32;20112;-80
2022/03/28 02:10:09;;;;;;;12.88;5.20;;;;;;;12.12;29.74;99647.38;4408741;32;20098;-80
2022/03/28 02:12:35;;;;;;;14.55;6.37;;;;;;;12.09;31.61;99646.66;4394589;32;20150;-80
2022/03/28 02:15:01;;;;;;;18.50;6.82;;;;;;;12.04;33.60;99652.16;4408720;32;20125;-80
2022/03/28 02:17:26;;;;;;;17.80;6.97;;;;;;;11.94;34.55;99648.25;4394503;32;20486;-80
2022/03/28 02:19:52;;;;;;;20.48;7.68;;;;;;;11.73;35.22;99655.34;4409146;32;20103;-82
2022/03/28 02:22:17;;;;;;;17.15;7.12;;;;;;;11.70;35.52;99655.47;4408405;32;20383;-81
2022/03/28 02:24:43;;;;;;;19.15;7.22;;;;;;;11.68;35.61;99654.69;4394512;32;20113;-81
2022/03/28 02:27:08;;;;;;;17.33;7.30;;;;;;;11.58;36.13;99649.81;4408361;32;20094;-81
2022/03/28 02:29:34;;;;;;;17.10;7.00;;;;;;;11.60;35.64;99642.69;4381977;32;20461;-81
2022/03/28 02:32:00;;;;;;;18.50;5.72;;;;;;;11.39;35.40;99647.12;4394343;32;20447;-81
2022/03/28 02:34:26;;;;;;;15.70;6.22;;;;;;;11.40;34.52;99642.72;4408035;32;20095;-81
2022/03/28 02:36:51;;;;;;;15.57;5.82;;;;;;;11.47;34.29;99644.16;4394075;32;20082;-81
2022/03/28 02:39:16;;;;;;;17.23;6.95;;;;;;;11.52;34.38;99646.59;4408731;32;20108;-78
2022/03/28 02:41:42;;;;;;;16.83;6.97;;;;;;;11.54;34.91;99642.97;4407915;32;20113;-79
2022/03/28 02:44:07;;;;;;;16.60;6.57;;;;;;;11.45;35.52;99650.44;4407949;32;20351;-79
2022/03/28 02:46:33;;;;;;;17.95;6.87;;;;;;;11.45;35.88;99643.34;4393853;32;20078;-80
2022/03/28 02:48:58;;;;;;;17.60;6.95;;;;;;;11.45;35.82;99653.91;4407733;32;20137;-79
2022/03/28 02:51:24;;;;;;;16.08;6.82;;;;;;;11.43;35.95;99652.28;4393855;32;20117;-79
2022/03/28 02:53:49;;;;;;;16.37;6.97;;;;;;;11.40;35.88;99659.41;4393895;32;20102;-80
2022/03/28 02:56:15;;;;;;;16.67;6.70;;;;;;;11.33;36.11;99651.81;4408309;32;20090;-81
2022/03/28 02:58:40;;;;;;;18.15;6.90;;;;;;;11.39;35.93;99655.03;4394375;32;20081;-80
2022/03/28 03:01:05;;;;;;;17.30;6.90;;;;;;;11.37;35.86;99648.97;4407473;32;20405;-81
2022/03/28 03:03:31;;;;;;;17.10;7.07;;;;;;;11.30;35.96;99652.81;4407334;32;20170;-81
2022/03/28 03:05:56;;;;;;;18.50;6.65;;;;;;;11.23;36.05;99648.72;4407520;32;20214;-81
2022/03/28 03:08:22;;;;;;;14.90;6.55;;;;;;;11.25;36.06;99656.59;4408186;32;20113;-82
2022/03/28 03:10:47;;;;;;;16.98;6.70;;;;;;;11.23;35.84;99659.28;4409760;32;20415;-81
2022/03/28 03:13:12;;;;;;;16.85;6.50;;;;;;;11.17;35.82;99652.50;4410509;32;20111;-80
2022/03/28 03:15:41;;;;;;;15.43;6.15;;;;;;;11.04;35.97;99651.31;4411093;32;20125;-81
2022/03/28 03:18:06;;;;;;;17.23;6.22;;;;;;;11.10;35.64;99651.03;4425145;32;20086;-81
2022/03/28 03:20:32;;;;;;;15.73;6.25;;;;;;;11.03;35.45;99646.97;4410622;32;20198;-81
2022/03/28 03:22:59;;;;;;;15.95;5.37;;;;;;;11.04;35.47;99650.44;4424363;32;20105;-81
2022/03/28 03:25:24;;;;;;;17.77;5.65;;;;;;;11.04;35.27;99651.31;4410637;32;20516;-81
2022/03/28 03:27:51;;;;;;;14.38;5.25;;;;;;;11.00;34.85;99645.28;4424423;32;20078;-81
2022/03/28 03:30:18;;;;;;;14.80;5.15;;;;;;;11.04;34.78;99643.37;4424678;32;20090;-81
2022/03/28 03:32:43;;;;;;;13.93;4.78;;;;;;;11.07;34.56;99643.28;4423567;32;20098;-80
2022/03/28 03:35:09;;;;;;;12.93;5.20;;;;;;;11.07;34.06;99642.37;4410895;32;20081;-80
2022/03/28 03:37:35;;;;;;;13.23;5.15;;;;;;;11.01;34.34;99639.12;4424775;32;20120;-80
2022/03/28 03:40:01;;;;;;;12.98;4.75;;;;;;;11.04;34.51;99645.19;4410788;32;20128;-80
2022/03/28 03:42:26;;;;;;;14.13;4.60;;;;;;;11.05;34.59;99631.06;4424721;32;20116;-81
2022/03/28 03:44:51;;;;;;;15.52;4.95;;;;;;;11.09;34.46;99628.25;4410812;32;20130;-80
2022/03/28 03:47:17;;;;;;;13.40;4.50;;;;;;;10.98;34.29;99633.97;4424798;32;20074;-80
2022/03/28 03:49:42;;;;;;;15.38;5.05;;;;;;;11.05;33.65;99629.31;4423467;32;20465;-81
2022/03/28 03:52:10;;;;;;;16.00;5.87;;;;;;;11.02;33.74;99625.00;4410954;32;20126;-81
2022/03/28 03:54:35;;;;;;;14.15;6.28;;;;;;;11.05;34.09;99617.88;4411041;32;20567;-80
2022/03/28 03:57:01;;;;;;;16.00;5.30;;;;;;;11.04;34.81;99621.44;4424755;32;20082;-79
2022/03/28 03:59:26;;;;;;;13.68;5.70;;;;;;;11.08;34.91;99625.66;4424804;32;20098;-80
2022/03/28 04:01:51;;;;;;;13.60;5.45;;;;;;;11.08;35.14;99623.03;4424658;32;20434;-79
2022/03/28 04:04:17;;;;;;;11.35;4.78;;;;;;;11.07;34.85;99627.44;4410628;32;20162;-80
2022/03/28 04:06:42;;;;;;;13.13;4.85;;;;;;;11.11;34.24;99620.28;4410626;32;20114;-81
2022/03/28 04:09:08;;;;;;;12.55;4.97;;;;;;;11.11;33.98;99625.53;4422609;32;20106;-80
2022/03/28 04:11:33;;;;;;;12.98;5.10;;;;;;;10.58;34.74;99625.09;4424661;32;20146;-80
2022/03/28 04:13:59;;;;;;;14.27;5.07;;;;;;;10.94;34.33;99623.62;4424599;32;20136;-81
2022/03/28 04:16:24;;;;;;;15.13;5.72;;;;;;;10.99;34.48;99622.50;4417873;32;20140;-81
2022/03/28 04:18:50;;;;;;;15.32;4.70;;;;;;;11.03;34.61;99620.59;4409013;32;20117;-83
2022/03/28 04:21:15;;;;;;;13.90;5.10;;;;;;;11.04;34.77;99622.28;4409247;32;20137;-80
2022/03/28 04:23:41;;;;;;;13.35;5.28;;;;;;;10.98;34.99;99622.56;4409111;32;20106;-79
2022/03/28 04:26:06;;;;;;;15.55;5.05;;;;;;;10.98;35.13;99622.56;4395493;32;20094;-80
2022/03/28 04:28:31;;;;;;;15.70;5.15;;;;;;;10.99;35.17;99619.00;4408822;32;20098;-81
2022/03/28 04:30:57;;;;;;;13.80;5.07;;;;;;;11.00;35.08;99613.66;4395541;32;20123;-80
2022/03/28 04:33:22;;;;;;;13.95;5.20;;;;;;;10.95;35.15;99620.06;4409928;32;20109;-80
2022/03/28 04:35:48;;;;;;;15.85;5.40;;;;;;;10.95;35.19;99614.78;4409272;32;20132;-81
2022/03/28 04:38:14;;;;;;;12.35;4.60;;;;;;;10.91;35.13;99619.31;4395291;32;20128;-81
2022/03/28 04:40:39;;;;;;;12.52;4.75;;;;;;;10.97;34.83;99620.84;4395284;32;20209;-81
2022/03/28 04:43:05;;;;;;;15.15;4.72;;;;;;;11.00;34.79;99618.09;4409152;32;20152;-81
2022/03/28 04:45:32;;;;;;;13.95;4.78;;;;;;;10.94;34.72;99619.19;4395450;32;20213;-81
2022/03/28 04:47:57;;;;;;;13.77;4.68;;;;;;;10.98;34.56;99617.28;4409105;32;20382;-80
2022/03/28 04:50:23;;;;;;;14.63;5.10;;;;;;;11.04;34.47;99619.66;4395397;32;20090;-80
2022/03/28 04:52:48;;;;;;;14.82;5.12;;;;;;;11.03;34.57;99607.41;4395310;32;20106;-81
2022/03/28 04:55:14;;;;;;;14.48;5.32;;;;;;;11.02;34.49;99610.97;4395354;32;20082;-81
2022/03/28 04:57:39;;;;;;;14.40;5.70;;;;;;;10.79;34.63;99619.84;4395061;32;20153;-80
2022/03/28 05:00:06;;;;;;;16.52;5.22;;;;;;;11.11;34.07;99607.94;4408642;32;20391;-80
2022/03/28 05:02:34;;;;;;;14.00;5.18;;;;;;;11.18;33.99;99606.75;4408398;32;20145;-80
2022/03/28 05:04:59;;;;;;;15.05;5.70;;;;;;;11.23;34.09;99609.16;4409088;32;20158;-80
2022/03/28 05:07:26;;;;;;;14.70;5.55;;;;;;;11.25;34.26;99615.22;4395354;32;20462;-80
2022/03/28 05:09:53;;;;;;;16.00;5.80;;;;;;;11.25;34.07;99617.88;4419721;32;20135;-79
2022/03/28 05:12:19;;;;;;;16.17;5.93;;;;;;;11.34;34.26;99616.62;4410395;32;20094;-82
2022/03/28 05:14:45;;;;;;;14.05;5.20;;;;;;;11.40;34.26;99613.72;4423977;32;20098;-82
2022/03/28 05:17:10;;;;;;;16.15;5.22;;;;;;;11.46;33.85;99610.78;4424098;32;20090;-81
2022/03/28 05:19:36;;;;;;;14.25;4.78;;;;;;;11.60;33.18;99607.53;4424079;32;20116;-81
2022/03/28 05:22:02;;;;;;;15.75;5.22;;;;;;;11.71;32.45;99607.88;4410113;32;20090;-81
2022/03/28 05:24:27;;;;;;;13.85;5.18;;;;;;;11.82;32.66;99607.41;4422640;32;20073;-81
2022/03/28 05:26:52;;;;;;;13.48;4.87;;;;;;;11.91;32.60;99611.41;4421160;32;20094;-81
2022/03/28 05:29:22;;;;;;;12.37;5.47;;;;;;;12.05;32.47;99608.97;4418364;32;20089;-81
2022/03/28 05:31:47;;;;;;;13.07;5.87;;;;;;;12.22;32.34;99604.69;4409122;32;20094;-80
2022/03/28 05:34:12;;;;;;;14.15;5.07;;;;;;;12.12;32.12;99609.53;4408633;32;20070;-80
2022/03/28 05:36:38;;;;;;;15.48;5.80;;;;;;;12.34;31.23;99609.34;4408675;32;20163;-80
2022/03/28 05:39:04;;;;;;;15.32;5.37;;;;;;;12.34;30.61;99609.34;4395105;32;20161;-81
2022/03/28 05:41:29;;;;;;;14.18;5.30;;;;;;;12.35;30.49;99611.09;4409337;32;20094;-80
2022/03/28 05:43:55;;;;;;;15.70;5.37;;;;;;;12.45;30.71;99609.69;4408720;32;20492;-82
2022/03/28 05:46:20;;;;;;;14.68;5.70;;;;;;;12.50;30.60;99610.34;4408431;32;20094;-81
2022/03/28 05:48:46;;;;;;;17.30;6.25;;;;;;;12.52;30.68;99612.91;4395061;32;20125;-80
2022/03/28 05:51:11;;;;;;;17.85;6.35;;;;;;;12.42;30.85;99604.56;4394762;32;20157;-81
2022/03/28 05:53:37;;;;;;;15.77;5.78;;;;;;;12.45;32.18;99611.47;4408537;32;20125;-81
2022/03/28 05:56:03;;;;;;;15.50;6.00;;;;;;;12.55;32.42;99610.94;4394700;32;20129;-80
2022/03/28 05:58:29;;;;;;;13.57;5.50;;;;;;;12.77;31.88;99607.25;4409074;32;20119;-81
2022/03/28 06:00:55;;;;;;;18.92;5.75;;;;;;;12.86;30.98;99601.47;4395208;32;20108;-81
2022/03/28 06:03:21;;;;;;;17.77;6.80;;;;;;;12.93;31.10;99596.75;4395029;32;20090;-81
2022/03/28 06:05:46;;;;;;;18.40;6.45;;;;;;;13.09;31.16;99602.09;4408689;32;20115;-81
2022/03/28 06:08:12;;;;;;;15.90;6.80;;;;;;;13.10;30.89;99598.53;4394771;32;20098;-81
2022/03/28 06:10:37;;;;;;;18.12;6.00;;;;;;;13.28;31.00;99602.00;4408502;32;20133;-80
2022/03/28 06:13:03;;;;;;;16.17;6.25;;;;;;;13.22;30.74;99603.16;4408336;32;20478;-82
2022/03/28 06:15:32;;;;;;;14.93;5.93;;;;;;;13.47;30.38;99596.59;4408700;32;20121;-82
2022/03/28 06:17:57;;;;;;;15.45;6.22;;;;;;;13.39;30.79;99593.53;4409115;32;20169;-82
2022/03/28 06:20:23;;;;;;;18.95;6.57;;;;;;;13.63;30.16;99591.34;4408051;32;20430;-81
2022/03/28 06:22:48;;;;;;;18.30;6.32;;;;;;;13.68;29.37;99587.50;4408291;32;20086;-81
2022/03/28 06:25:15;;;;;;;14.68;5.68;;;;;;;13.76;29.41;99584.44;4416291;32;20102;-80
2022/03/28 06:27:41;;;;;;;12.15;4.70;;;;;;;13.82;28.40;99585.91;4397208;32;20098;-81
2022/03/28 06:30:08;;;;;;;12.85;4.80;;;;;;;13.84;26.77;99589.31;4409610;32;20472;-82
2022/03/28 06:32:34;;;;;;;12.40;4.37;;;;;;;13.79;26.17;99584.28;4404195;32;20107;-79
2022/03/28 06:34:59;;;;;;;12.43;4.45;;;;;;;13.89;26.27;99579.31;4407953;32;20090;-80
2022/03/28 06:37:25;;;;;;;12.60;4.65;;;;;;;14.02;26.41;99587.41;4407908;32;20461;-80
2022/03/28 06:39:50;;;;;;;14.85;4.43;;;;;;;14.29;25.76;99592.97;4407975;32;20090;-80
2022/03/28 06:42:16;;;;;;;13.15;4.70;;;;;;;14.39;24.59;99585.34;4407856;32;20134;-80
2022/03/28 06:44:41;;;;;;;16.00;4.95;;;;;;;14.42;25.65;99578.06;4395817;32;20124;-79
2022/03/28 06:47:06;;;;;;;14.48;4.32;;;;;;;14.49;24.84;99579.41;4410006;32;20078;-79
2022/03/28 06:49:32;;;;;;;14.10;4.65;;;;;;;14.48;25.12;99583.00;4410649;32;20094;-80
2022/03/28 06:51:58;;;;;;;13.77;4.37;;;;;;;14.57;24.59;99579.00;4409781;32;20078;-79
2022/03/28 06:54:23;;;;;;;12.57;4.47;;;;;;;14.75;24.34;99577.91;4396034;32;20146;-80
2022/03/28 06:56:49;;;;;;;12.45;4.68;;;;;;;14.79;24.61;99583.88;4396063;32;20120;-80
2022/03/28 06:59:14;;;;;;;13.32;5.10;;;;;;;14.84;24.36;99578.34;4409629;32;20135;-80
2022/03/28 07:01:41;;;;;;;13.95;5.10;;;;;;;14.73;24.54;99571.84;4409902;32;20090;-80
2022/03/28 07:04:10;;;;;;;14.37;4.73;;;;;;;14.90;24.24;99572.66;4409888;32;20763;-80
2022/03/28 07:06:36;;;;;;;13.95;4.40;;;;;;;14.92;24.11;99576.91;4410407;32;20120;-80
2022/03/28 07:09:04;;;;;;;11.43;4.55;;;;;;;15.00;24.44;99567.66;4409873;32;20442;-80
2022/03/28 07:11:30;;;;;;;13.75;5.10;;;;;;;15.08;24.26;99568.88;4409819;32;20086;-81
2022/03/28 07:13:56;;;;;;;14.73;4.78;;;;;;;15.26;23.60;99568.69;4409713;32;20364;-80
2022/03/28 07:16:21;;;;;;;14.82;5.50;;;;;;;15.25;23.69;99567.84;4395763;32;20428;-79
2022/03/28 07:18:46;;;;;;;16.37;5.70;;;;;;;15.47;23.03;99559.44;4420190;32;20094;-80
2022/03/28 07:21:12;;;;;;;15.30;5.60;;;;;;;15.70;23.12;99565.06;4423698;32;20131;-80
2022/03/28 07:23:37;;;;;;;14.32;5.60;;;;;;;15.56;22.64;99560.63;4424918;32;20454;-80
2022/03/28 07:26:03;;;;;;;15.55;5.60;;;;;;;15.47;23.24;99562.09;4423596;32;20090;-80
2022/03/28 07:28:29;;;;;;;15.05;5.35;;;;;;;15.45;23.47;99560.44;4421737;32;20474;-78
2022/03/28 07:30:55;;;;;;;16.85;6.03;;;;;;;15.58;22.86;99553.44;4420571;32;20108;-79
2022/03/28 07:33:20;;;;;;;15.05;6.18;;;;;;;15.57;23.20;99553.50;4423501;32;20105;-79
2022/03/28 07:35:46;;;;;;;18.95;6.37;;;;;;;15.44;23.18;99559.59;4424820;32;20529;-79
2022/03/28 07:38:11;;;;;;;17.50;6.60;;;;;;;15.50;23.34;99547.75;4424958;32;20520;-79
2022/03/28 07:40:38;;;;;;;16.42;6.25;;;;;;;15.56;23.07;99555.31;4421158;32;20124;-80
2022/03/28 07:43:04;;;;;;;15.50;6.35;;;;;;;15.41;23.34;99561.59;4421622;32;20547;-80
2022/03/28 07:45:30;;;;;;;18.02;7.05;;;;;;;15.57;23.68;99561.47;4408097;32;20169;-80
2022/03/28 07:47:55;;;;;;;15.52;6.22;;;;;;;15.66;23.82;99543.16;4412802;32;20442;-78
2022/03/28 07:50:21;;;;;;;18.02;6.62;;;;;;;15.72;23.23;99549.88;4423014;32;20377;-79
2022/03/28 07:52:46;;;;;;;19.17;6.72;;;;;;;15.77;22.85;99552.31;4422384;32;20200;-80
2022/03/28 07:55:13;;;;;;;18.00;6.87;;;;;;;15.48;23.79;99550.50;4421678;32;20108;-79
2022/03/28 07:57:39;;;;;;;13.30;5.43;;;;;;;15.67;23.50;99552.84;4409637;32;20185;-81
2022/03/28 08:00:10;;;;;;;15.05;6.60;;;;;;;15.82;23.39;99548.41;4416817;32;21042;-80
2022/03/28 08:02:36;;;;;;;16.70;6.12;;;;;;;15.74;23.47;99556.00;4409735;32;20137;-79
2022/03/28 08:05:02;;;;;;;16.17;6.00;;;;;;;15.73;23.48;99552.50;4411636;32;20113;-79
2022/03/28 08:07:28;;;;;;;15.48;6.25;;;;;;;15.84;23.40;99545.63;4421514;32;20468;-79
2022/03/28 08:09:54;;;;;;;14.87;5.85;;;;;;;16.00;23.40;99543.69;4427990;32;20141;-78
2022/03/28 08:12:20;;;;;;;17.00;6.22;;;;;;;16.16;23.44;99548.88;4416786;32;20097;-79
2022/03/28 08:14:46;;;;;;;19.40;7.32;;;;;;;16.11;22.95;99549.19;4430377;32;20147;-78
2022/03/28 08:17:11;;;;;;;17.33;6.25;;;;;;;16.14;22.81;99541.94;4426489;32;20113;-79
2022/03/28 08:19:37;;;;;;;17.33;6.20;;;;;;;16.25;22.38;99539.44;4401895;32;20433;-78
2022/03/28 08:22:02;;;;;;;19.35;6.20;;;;;;;16.26;23.15;99541.13;4424687;32;20121;-78
2022/03/28 08:24:28;;;;;;;15.70;6.62;;;;;;;16.21;22.89;99540.59;4431917;32;20124;-78
2022/03/28 08:26:53;;;;;;;16.62;6.55;;;;;;;16.24;23.16;99535.06;4431111;32;20086;-78
2022/03/28 08:29:19;;;;;;;18.62;7.10;;;;;;;16.32;24.41;99540.72;4414370;32;20124;-79
2022/03/28 08:31:45;;;;;;;22.83;8.48;;;;;;;16.42;24.25;99533.00;4400281;32;20113;-79
2022/03/28 08:34:10;;;;;;;18.73;7.03;;;;;;;16.62;23.38;99534.31;4416764;32;20109;-78
2022/03/28 08:36:37;;;;;;;17.08;6.78;;;;;;;16.57;23.40;99529.28;4431131;32;20156;-79
2022/03/28 08:39:04;;;;;;;19.25;7.43;;;;;;;16.54;24.37;99526.00;4414704;32;20090;-80
2022/03/28 08:41:30;;;;;;;15.30;7.05;;;;;;;16.63;24.62;99525.38;4428537;32;20117;-78
2022/03/28 08:43:56;;;;;;;16.55;7.25;;;;;;;16.77;24.06;99509.34;4413363;32;20176;-78
2022/03/28 08:46:21;;;;;;;16.77;7.18;;;;;;;16.70;24.48;99513.37;4429169;32;20142;-80
2022/03/28 08:48:47;;;;;;;15.05;6.57;;;;;;;16.70;24.78;99510.69;4409144;32;20105;-78
2022/03/28 08:51:16;;;;;;;16.73;6.70;;;;;;;16.86;24.31;99508.75;4429264;32;20088;-79
2022/03/28 08:53:43;;;;;;;17.12;6.35;;;;;;;16.94;24.44;99497.56;4415807;32;20149;-79
2022/03/28 08:56:09;;;;;;;16.42;6.12;;;;;;;16.96;26.12;99503.63;4430481;32;20152;-78
2022/03/28 08:58:34;;;;;;;16.00;5.85;;;;;;;17.13;25.65;99493.59;4415194;32;20187;-79
2022/03/28 09:01:01;;;;;;;16.15;6.32;;;;;;;17.29;26.23;99496.88;4431395;32;20168;-79
2022/03/28 09:03:47;;;;;;;15.27;5.77;;;;;;;17.35;26.62;99499.09;4411364;32;170064;-74
2022/03/28 09:06:32;;;;;;;19.37;5.87;;;;;;;17.45;26.66;99491.31;4416046;32;20813;-75
2022/03/28 09:09:10;;;;;;;16.60;5.82;;;;;;;17.66;26.96;99486.25;4428272;32;20410;-75
2022/03/28 09:11:36;;;;;;;16.05;5.32;;;;;;;17.59;26.54;99485.81;4430096;32;20085;-74
2022/03/28 09:14:01;;;;;;;16.48;5.60;;;;;;;17.78;26.26;99482.69;4430882;32;20134;-74
2022/03/28 09:16:31;;;;;;;12.52;5.28;;;;;;;17.86;26.62;99476.81;4429174;32;20429;-74
2022/03/28 09:18:57;;;;;;;15.50;6.00;;;;;;;17.85;26.67;99475.13;4428114;32;20160;-74
2022/03/28 09:21:24;;;;;;;14.40;5.68;;;;;;;17.79;27.13;99479.06;4430891;32;20384;-76
2022/03/28 09:23:51;;;;;;;14.30;5.68;;;;;;;17.90;27.39;99472.94;4431552;32;20102;-74
2022/03/28 09:26:21;;;;;;;15.55;5.55;;;;;;;17.98;27.51;99470.59;4416031;32;20089;-73
2022/03/28 09:29:03;;;;;;;13.70;5.45;;;;;;;18.09;27.54;99464.44;4430472;32;20129;-74
2022/03/28 09:31:44;;;;;;;15.50;6.00;;;;;;;18.13;27.62;99470.41;4430465;32;20162;-74
2022/03/28 09:34:15;;;;;;;15.07;5.62;;;;;;;18.20;27.66;99464.50;4414103;32;20131;-75
2022/03/28 09:36:44;;;;;;;15.48;6.53;;;;;;;18.38;27.57;99459.56;4414340;32;20503;-74
2022/03/28 09:39:12;;;;;;;16.50;6.07;;;;;;;18.30;27.50;99453.97;4430186;32;20435;-74
2022/03/28 09:41:38;;;;;;;14.70;5.90;;;;;;;18.46;27.67;99456.31;4420226;32;20434;-73
2022/03/28 09:44:04;;;;;;;15.60;5.90;;;;;;;18.51;28.00;99453.31;4400424;32;20098;-75
2022/03/28 09:46:32;;;;;;;16.80;6.70;;;;;;;18.56;27.63;99451.13;4415884;32;20105;-74
2022/03/28 09:48:59;;;;;;;;;;;;;;;18.63;27.86;99450.53;4416285;32;20078;-74
2022/03/28 09:51:29;;;;;;;14.77;6.15;;;;;;;18.71;27.63;99452.59;4413213;32;19985;-74
2022/03/28 09:53:55;;;;;;;15.00;6.10;;;;;;;18.76;27.42;99444.25;4406896;32;20181;-74
2022/03/28 09:56:21;;;;;;;17.25;5.72;;;;;;;18.76;27.36;99439.75;4404749;32;20094;-75
2022/03/28 09:58:46;;;;;;;12.95;5.80;;;;;;;18.83;27.85;99443.69;4399285;32;20116;-73
2022/03/28 10:01:12;;;;;;;15.85;5.82;;;;;;;18.85;27.94;99439.06;4415424;32;20093;-74
2022/03/28 10:03:37;;;;;;;14.05;6.22;;;;;;;18.92;27.63;99434.09;4414995;32;20094;-73
2022/03/28 10:06:04;;;;;;;15.52;5.85;;;;;;;19.02;27.32;99423.53;4400269;32;20082;-74
2022/03/28 10:08:30;;;;;;;15.30;5.95;;;;;;;18.97;27.51;99428.41;4407784;32;20078;-75
2022/03/28 10:10:57;;;;;;;15.02;5.43;;;;;;;19.00;27.84;99420.97;4407022;32;20533;-75
2022/03/28 10:13:23;;;;;;;16.25;6.68;;;;;;;19.13;27.72;99414.69;4424024;32;20089;-75
2022/03/28 10:15:49;;;;;;;15.57;6.18;;;;;;;19.02;27.79;99418.19;4429292;32;20143;-76
2022/03/28 10:18:14;;;;;;;15.02;5.78;;;;;;;19.09;27.93;99411.41;4415255;32;20203;-76
2022/03/28 10:20:42;;;;;;;14.40;5.55;;;;;;;19.02;27.95;99404.84;4431167;32;20114;-74
2022/03/28 10:23:08;;;;;;;12.23;5.22;;;;;;;19.11;28.30;99404.09;4398850;32;20106;-75
2022/03/28 10:25:34;;;;;;;14.95;5.72;;;;;;;19.23;28.33;99400.44;4400429;32;20161;-76
2022/03/28 10:27:59;;;;;;;15.57;5.87;;;;;;;19.24;28.42;99399.47;4412506;32;20081;-76
2022/03/28 10:30:30;;;;;;;14.23;5.90;;;;;;;19.42;28.18;99394.47;4416582;32;20097;-77
2022/03/28 10:33:14;;;;;;;14.52;5.68;;;;;;;19.48;28.23;99393.09;4414420;32;20097;-76
2022/03/28 10:35:57;;;;;;;12.63;5.85;;;;;;;19.48;28.20;99384.25;4406523;32;20090;-78
2022/03/28 10:38:23;;;;;;;13.88;5.93;;;;;;;19.49;28.45;99383.25;4405127;32;20093;-75
2022/03/28 10:40:59;;;;;;;13.27;5.70;;;;;;;19.36;28.76;99378.94;4432292;32;20197;-76
2022/03/28 10:43:30;;;;;;;16.23;5.68;;;;;;;19.43;28.98;99373.91;4416763;32;20114;-76
2022/03/28 10:46:06;;;;;;;12.68;5.25;;;;;;;19.45;29.13;99367.50;4429184;32;20184;-76
2022/03/28 10:48:42;;;;;;;15.38;5.15;;;;;;;19.53;29.22;99357.97;4426849;32;20482;-76
2022/03/28 10:51:13;;;;;;;12.25;5.85;;;;;;;19.57;29.20;99354.94;4415604;32;20464;-76
2022/03/28 10:54:12;;;;;;;15.55;6.18;;;;;;;19.67;28.90;99348.84;4427980;32;20139;-77
2022/03/28 10:56:40;;;;;;;13.75;5.75;;;;;;;19.63;28.62;99343.75;4423823;32;20102;-76
2022/03/28 10:59:15;;;;;;;14.38;6.00;;;;;;;19.69;28.67;99344.22;4424188;32;20454;-75
2022/03/28 11:01:43;;;;;;;15.00;6.18;;;;;;;19.66;28.95;99334.59;4409253;32;20093;-75
2022/03/28 11:04:15;;;;;;;13.60;5.45;;;;;;;19.70;29.45;99335.19;4420617;32;20176;-74
2022/03/28 11:06:50;;;;;;;13.82;5.87;;;;;;;19.74;29.36;99323.31;4420182;32;20458;-76
2022/03/28 11:09:44;;;;;;;14.10;5.70;;;;;;;19.74;29.28;99326.84;4422027;32;20090;-74
2022/03/28 11:12:37;;;;;;;12.57;5.25;;;;;;;19.87;29.18;99321.28;4420632;32;20086;-75
2022/03/28 11:15:05;;;;;;;12.75;5.20;;;;;;;19.92;29.29;99321.75;4424034;32;20113;-77
2022/03/28 11:17:37;;;;;;;;;;;;;;;19.95;29.42;99305.47;4426332;32;20157;-76
2022/03/28 11:20:12;;;;;;;12.32;5.25;;;;;;;19.90;29.48;99307.69;4409245;32;19969;-75
2022/03/28 11:22:48;;;;;;;13.25;5.80;;;;;;;19.98;29.14;99293.66;4400773;32;20117;-75
2022/03/28 11:25:41;;;;;;;13.25;4.85;;;;;;;19.96;29.50;99298.28;4413873;32;20120;-75